createdAt,value
2017-12-28T00:00:08.341Z,85.45
2017-12-28T00:01:08.054Z,85.07
2017-12-28T00:02:08.031Z,85.26
2017-12-28T00:03:08.276Z,86.11
2017-12-28T00:04:08.251Z,85.64
2017-12-28T00:05:08.231Z,85.07
2017-12-28T00:06:08.216Z,85.26
2017-12-28T00:07:08.189Z,84.59
2017-12-28T00:08:08.178Z,84.88
2017-12-28T00:09:07.886Z,84.69
2017-12-28T00:10:07.865Z,85.26
2017-12-28T00:11:07.848Z,84.5
2017-12-28T00:12:07.820Z,85.36
2017-12-28T00:13:07.801Z,85.36
2017-12-28T00:14:07.777Z,85.45
2017-12-28T00:15:08.222Z,85.26
2017-12-28T00:16:07.736Z,85.36
2017-12-28T00:17:07.977Z,85.45
2017-12-28T00:18:08.010Z,85.36
2017-12-28T00:19:07.934Z,84.88
2017-12-28T00:20:07.651Z,85.07
2017-12-28T00:21:07.628Z,84.78
2017-12-28T00:22:07.870Z,84.78
2017-12-28T00:23:07.585Z,85.07
2017-12-28T00:24:07.564Z,85.07
2017-12-28T00:25:07.806Z,84.69
2017-12-28T00:26:07.520Z,85.64
2017-12-28T00:27:07.502Z,85.64
2017-12-28T00:28:07.477Z,85.26
2017-12-28T00:29:07.730Z,85.07
2017-12-28T00:30:07.437Z,84.59
2017-12-28T00:31:07.415Z,85.26
2017-12-28T00:32:07.399Z,84.46
2017-12-28T00:33:07.373Z,84.74
2017-12-28T00:34:07.615Z,84.36
2017-12-28T00:35:07.327Z,84.55
2017-12-28T00:36:07.313Z,83.98
2017-12-28T00:37:07.550Z,83.98
2017-12-28T00:38:07.531Z,84.84
2017-12-28T00:39:07.241Z,84.46
2017-12-28T00:40:07.243Z,84.27
2017-12-28T00:41:07.511Z,84.08
2017-12-28T00:42:07.209Z,84.65
2017-12-28T00:43:07.157Z,83.61
2017-12-28T00:44:07.132Z,82.66
2017-12-28T00:45:07.114Z,83.51
2017-12-28T00:46:07.362Z,83.8
2017-12-28T00:47:07.333Z,83.98
2017-12-28T00:48:07.049Z,84.08
2017-12-28T00:49:07.289Z,83.8
2017-12-28T00:50:07.273Z,83.98
2017-12-28T00:51:07.247Z,84.65
2017-12-28T00:52:07.241Z,83.32
2017-12-28T00:53:06.943Z,84.17
2017-12-28T00:54:06.922Z,83.89
2017-12-28T00:55:07.162Z,84.08
2017-12-28T00:56:06.876Z,84.84
2017-12-28T00:57:06.852Z,84.46
2017-12-28T00:58:06.832Z,84.65
2017-12-28T00:59:06.811Z,84.27
2017-12-28T01:00:06.808Z,84.46
2017-12-28T01:01:06.766Z,84.46
2017-12-28T01:02:06.749Z,84.55
2017-12-28T01:03:06.722Z,84.17
2017-12-28T01:04:06.969Z,84.65
2017-12-28T01:05:06.948Z,83.98
2017-12-28T01:06:06.657Z,85.03
2017-12-28T01:07:06.897Z,84.46
2017-12-28T01:08:06.886Z,84.17
2017-12-28T01:09:06.859Z,84.08
2017-12-28T01:10:06.842Z,84.46
2017-12-28T01:11:06.813Z,84.17
2017-12-28T01:12:06.794Z,84.27
2017-12-28T01:13:06.770Z,84.74
2017-12-28T01:14:06.748Z,85.13
2017-12-28T01:15:06.461Z,84.84
2017-12-28T01:16:06.705Z,84.65
2017-12-28T01:17:06.419Z,84.65
2017-12-28T01:18:06.398Z,85.31
2017-12-28T01:19:06.639Z,85.03
2017-12-28T01:20:06.618Z,84.55
2017-12-28T01:21:06.598Z,84.27
2017-12-28T01:22:06.315Z,85.03
2017-12-28T01:23:06.288Z,85.03
2017-12-28T01:24:06.530Z,84.94
2017-12-28T01:25:06.507Z,84.65
2017-12-28T01:26:06.223Z,84.94
2017-12-28T01:27:06.200Z,84.74
2017-12-28T01:28:06.178Z,84.84
2017-12-28T01:29:06.421Z,84.65
2017-12-28T01:30:06.139Z,84.65
2017-12-28T01:31:06.379Z,84.84
2017-12-28T01:32:06.364Z,85.03
2017-12-28T01:33:06.335Z,85.31
2017-12-28T01:34:06.311Z,85.5
2017-12-28T01:35:06.030Z,85.6
2017-12-28T01:36:06.275Z,85.22
2017-12-28T01:37:06.248Z,85.31
2017-12-28T01:38:05.967Z,85.41
2017-12-28T01:39:05.945Z,85.13
2017-12-28T01:40:06.185Z,84.65
2017-12-28T01:41:06.159Z,85.22
2017-12-28T01:42:06.142Z,84.84
2017-12-28T01:43:05.852Z,84.84
2017-12-28T01:44:05.833Z,85.22
2017-12-28T01:45:05.809Z,84.94
2017-12-28T01:46:06.050Z,84.55
2017-12-28T01:47:06.036Z,84.84
2017-12-28T01:48:05.745Z,84.94
2017-12-28T01:49:05.725Z,84.46
2017-12-28T01:50:05.962Z,84.36
2017-12-28T01:51:05.675Z,83.89
2017-12-28T01:52:05.920Z,83.89
2017-12-28T01:53:05.899Z,84.17
2017-12-28T01:54:05.878Z,84.17
2017-12-28T01:55:05.854Z,83.61
2017-12-28T01:56:05.833Z,82.85
2017-12-28T01:57:05.546Z,82.85
2017-12-28T01:58:05.793Z,83.32
2017-12-28T01:59:05.504Z,83.04
2017-12-28T02:00:05.488Z,82.85
2017-12-28T02:01:05.730Z,82.37
2017-12-28T02:02:05.437Z,82.18
2017-12-28T02:03:05.692Z,82.85
2017-12-28T02:04:05.655Z,82.66
2017-12-28T02:05:05.634Z,82.47
2017-12-28T02:06:05.347Z,82.37
2017-12-28T02:07:05.329Z,82.37
2017-12-28T02:08:05.307Z,81.81
2017-12-28T02:09:05.283Z,82.47
2017-12-28T02:10:05.529Z,81.99
2017-12-28T02:11:05.236Z,81.33
2017-12-28T02:12:05.480Z,81.57
2017-12-28T02:13:05.201Z,81.57
2017-12-28T02:14:05.180Z,81.05
2017-12-28T02:15:05.154Z,80.82
2017-12-28T02:16:05.130Z,80.72
2017-12-28T02:17:05.105Z,80.48
2017-12-28T02:18:05.084Z,80.95
2017-12-28T02:19:05.064Z,81.05
2017-12-28T02:20:05.299Z,80.34
2017-12-28T02:21:05.018Z,80.95
2017-12-28T02:22:05.002Z,80.95
2017-12-28T02:23:05.237Z,81.52
2017-12-28T02:24:05.214Z,81.05
2017-12-28T02:25:04.930Z,80.57
2017-12-28T02:26:05.172Z,80.44
2017-12-28T02:27:05.144Z,80.06
2017-12-28T02:28:05.125Z,79.68
2017-12-28T02:29:05.105Z,79.68
2017-12-28T02:30:05.091Z,79.39
2017-12-28T02:31:05.058Z,79.49
2017-12-28T02:32:05.038Z,79.3
2017-12-28T02:33:05.019Z,78.92
2017-12-28T02:34:04.730Z,78.92
2017-12-28T02:35:04.710Z,77.97
2017-12-28T02:36:04.683Z,78.26
2017-12-28T02:37:04.933Z,77.78
2017-12-28T02:38:04.904Z,77.69
2017-12-28T02:39:04.619Z,77.5
2017-12-28T02:40:04.859Z,77.88
2017-12-28T02:41:04.834Z,77.22
2017-12-28T02:42:04.550Z,77.88
2017-12-28T02:43:04.790Z,77.78
2017-12-28T02:44:04.772Z,77.12
2017-12-28T02:45:04.750Z,77.31
2017-12-28T02:46:04.462Z,77.31
2017-12-28T02:47:04.704Z,77.69
2017-12-28T02:48:04.685Z,77.22
2017-12-28T02:49:04.662Z,77.5
2017-12-28T02:50:04.372Z,77.5
2017-12-28T02:51:04.616Z,77.25
2017-12-28T02:52:04.586Z,77.16
2017-12-28T02:53:04.302Z,77.5
2017-12-28T02:54:04.550Z,77.31
2017-12-28T02:55:04.270Z,77.5
2017-12-28T02:56:04.237Z,77.22
2017-12-28T02:57:04.482Z,77.5
2017-12-28T02:58:04.455Z,76.93
2017-12-28T02:59:04.443Z,77.12
2017-12-28T03:00:04.412Z,76.65
2017-12-28T03:01:04.389Z,76.93
2017-12-28T03:02:04.112Z,77.03
2017-12-28T03:03:04.346Z,77.12
2017-12-28T03:04:04.064Z,77.03
2017-12-28T03:05:04.299Z,76.84
2017-12-28T03:06:04.280Z,77.31
2017-12-28T03:07:03.993Z,76.74
2017-12-28T03:08:04.235Z,77.22
2017-12-28T03:09:04.214Z,77.31
2017-12-28T03:10:04.191Z,77.59
2017-12-28T03:11:04.166Z,77.12
2017-12-28T03:12:03.880Z,77.22
2017-12-28T03:13:03.858Z,77.31
2017-12-28T03:14:03.842Z,77.31
2017-12-28T03:15:04.075Z,77.03
2017-12-28T03:16:04.054Z,77.69
2017-12-28T03:17:03.768Z,77.5
2017-12-28T03:18:03.748Z,77.22
2017-12-28T03:19:03.994Z,77.22
2017-12-28T03:20:03.963Z,77.4
2017-12-28T03:21:03.945Z,77.69
2017-12-28T03:22:03.656Z,77.4
2017-12-28T03:23:03.899Z,76.93
2017-12-28T03:24:03.879Z,76.84
2017-12-28T03:25:03.853Z,76.93
2017-12-28T03:26:03.565Z,76.84
2017-12-28T03:27:03.550Z,76.74
2017-12-28T03:28:03.791Z,76.27
2017-12-28T03:29:03.768Z,76.08
2017-12-28T03:30:03.746Z,76.27
2017-12-28T03:31:03.724Z,76.27
2017-12-28T03:32:03.432Z,76.74
2017-12-28T03:33:03.407Z,76.27
2017-12-28T03:34:03.389Z,76.46
2017-12-28T03:35:03.365Z,76.93
2017-12-28T03:36:03.342Z,76.08
2017-12-28T03:37:03.581Z,76.93
2017-12-28T03:38:03.566Z,77.12
2017-12-28T03:39:03.539Z,76.65
2017-12-28T03:40:03.518Z,76.74
2017-12-28T03:41:03.229Z,77.4
2017-12-28T03:42:03.477Z,76.74
2017-12-28T03:43:03.453Z,77.5
2017-12-28T03:44:03.167Z,77.31
2017-12-28T03:45:03.406Z,77.12
2017-12-28T03:46:03.388Z,76.74
2017-12-28T03:47:03.360Z,77.12
2017-12-28T03:48:03.077Z,77.69
2017-12-28T03:49:03.051Z,76.74
2017-12-28T03:50:03.296Z,77.03
2017-12-28T03:51:03.005Z,76.65
2017-12-28T03:52:03.245Z,76.46
2017-12-28T03:53:02.958Z,76.27
2017-12-28T03:54:03.200Z,76.65
2017-12-28T03:55:03.182Z,76.36
2017-12-28T03:56:03.157Z,76.74
2017-12-28T03:57:03.137Z,76.55
2017-12-28T03:58:03.110Z,76.84
2017-12-28T03:59:02.825Z,77.03
2017-12-28T04:00:02.805Z,76.08
2017-12-28T04:01:03.048Z,76.08
2017-12-28T04:02:03.042Z,76.27
2017-12-28T04:03:02.736Z,75.79
2017-12-28T04:04:02.987Z,75.79
2017-12-28T04:05:02.695Z,76.08
2017-12-28T04:06:02.670Z,75.89
2017-12-28T04:07:02.647Z,76.17
2017-12-28T04:08:02.886Z,76.27
2017-12-28T04:09:02.600Z,76.17
2017-12-28T04:10:02.582Z,75.42
2017-12-28T04:11:02.821Z,74.85
2017-12-28T04:12:02.802Z,74.95
2017-12-28T04:13:02.509Z,75.13
2017-12-28T04:14:02.797Z,75.13
2017-12-28T04:15:02.736Z,74.95
2017-12-28T04:16:02.648Z,75.7
2017-12-28T04:17:02.683Z,75.79
2017-12-28T04:18:02.670Z,75.04
2017-12-28T04:19:02.378Z,75.32
2017-12-28T04:20:02.616Z,75.13
2017-12-28T04:21:02.330Z,75.13
2017-12-28T04:22:02.575Z,75.42
2017-12-28T04:23:02.286Z,75.32
2017-12-28T04:24:02.263Z,75.32
2017-12-28T04:25:02.245Z,75.23
2017-12-28T04:26:02.490Z,75.04
2017-12-28T04:27:02.459Z,75.32
2017-12-28T04:28:02.443Z,75.13
2017-12-28T04:29:02.428Z,75.32
2017-12-28T04:30:02.407Z,74.95
2017-12-28T04:31:02.104Z,74.95
2017-12-28T04:32:02.347Z,75.04
2017-12-28T04:33:02.320Z,75.51
2017-12-28T04:34:02.042Z,75.32
2017-12-28T04:35:02.277Z,75.04
2017-12-28T04:36:01.992Z,75.42
2017-12-28T04:37:01.970Z,75.79
2017-12-28T04:38:01.950Z,75.42
2017-12-28T04:39:01.925Z,75.79
2017-12-28T04:40:01.901Z,75.7
2017-12-28T04:41:02.141Z,75.79
2017-12-28T04:42:01.858Z,75.42
2017-12-28T04:43:01.839Z,75.42
2017-12-28T04:44:02.076Z,75.89
2017-12-28T04:45:01.795Z,75.89
2017-12-28T04:46:02.028Z,75.98
2017-12-28T04:47:02.010Z,75.98
2017-12-28T04:48:01.725Z,75.98
2017-12-28T04:49:01.963Z,75.7
2017-12-28T04:50:01.679Z,75.13
2017-12-28T04:51:01.916Z,75.04
2017-12-28T04:52:01.629Z,75.04
2017-12-28T04:53:01.614Z,75.42
2017-12-28T04:54:01.848Z,75.04
2017-12-28T04:55:01.561Z,75.13
2017-12-28T04:56:01.803Z,75.13
2017-12-28T04:57:01.799Z,75.42
2017-12-28T04:58:01.753Z,75.7
2017-12-28T04:59:01.739Z,76.55
2017-12-28T05:00:01.449Z,76.46
2017-12-28T05:01:01.429Z,76.36
2017-12-28T05:02:01.405Z,76.46
2017-12-28T05:03:01.383Z,76.84
2017-12-28T05:04:01.358Z,76.74
2017-12-28T05:05:01.334Z,76.93
2017-12-28T05:06:01.315Z,76.93
2017-12-28T05:07:01.290Z,75.98
2017-12-28T05:08:01.530Z,76.17
2017-12-28T05:09:01.508Z,76.46
2017-12-28T05:10:01.486Z,76.46
2017-12-28T05:11:01.466Z,76.08
2017-12-28T05:12:01.438Z,75.98
2017-12-28T05:13:01.156Z,76.27
2017-12-28T05:14:01.401Z,76.46
2017-12-28T05:15:01.376Z,76.27
2017-12-28T05:16:01.088Z,76.08
2017-12-28T05:17:01.329Z,76.46
2017-12-28T05:18:01.039Z,76.17
2017-12-28T05:19:01.016Z,76.17
2017-12-28T05:20:00.998Z,75.98
2017-12-28T05:21:00.974Z,76.51
2017-12-28T05:22:01.216Z,75.85
2017-12-28T05:23:00.929Z,76.08
2017-12-28T05:24:01.171Z,75.66
2017-12-28T05:25:01.145Z,75.85
2017-12-28T05:26:00.855Z,75.76
2017-12-28T05:27:01.098Z,75.95
2017-12-28T05:28:01.078Z,75.95
2017-12-28T05:29:01.055Z,75.38
2017-12-28T05:30:01.038Z,75.85
2017-12-28T05:31:01.005Z,75.19
2017-12-28T05:32:00.989Z,74.9
2017-12-28T05:33:00.958Z,74.43
2017-12-28T05:34:00.946Z,74.71
2017-12-28T05:35:00.919Z,74.62
2017-12-28T05:36:00.635Z,74.71
2017-12-28T05:37:00.613Z,75.28
2017-12-28T05:38:00.852Z,75.19
2017-12-28T05:39:00.824Z,75.38
2017-12-28T05:40:00.800Z,75.09
2017-12-28T05:41:00.516Z,74.43
2017-12-28T05:42:00.754Z,74.81
2017-12-28T05:43:00.733Z,74.9
2017-12-28T05:44:00.710Z,75
2017-12-28T05:45:00.687Z,75
2017-12-28T05:46:00.670Z,74.52
2017-12-28T05:47:00.380Z,75.47
2017-12-28T05:48:00.358Z,75.19
2017-12-28T05:49:00.596Z,75.79
2017-12-28T05:50:00.314Z,75.04
2017-12-28T05:51:00.283Z,75.6
2017-12-28T05:52:00.263Z,75.13
2017-12-28T05:53:00.242Z,75.6
2017-12-28T05:54:00.480Z,75.32
2017-12-28T05:55:00.196Z,75.6
2017-12-28T05:56:00.434Z,75.7
2017-12-28T05:57:00.413Z,76.27
2017-12-28T05:58:00.390Z,76.08
2017-12-28T05:59:00.126Z,76.08
2017-12-28T06:00:00.344Z,76.65
2017-12-28T06:01:00.072Z,76.46
2017-12-28T06:02:00.298Z,76.65
2017-12-28T06:03:00.281Z,76.17
2017-12-28T06:04:00.254Z,77.03
2017-12-28T06:05:00.282Z,76.17
2017-12-28T06:06:00.214Z,76.55
2017-12-28T06:06:59.925Z,76.93
2017-12-28T06:08:00.166Z,76.93
2017-12-28T06:09:00.143Z,76.93
2017-12-28T06:09:59.852Z,76.84
2017-12-28T06:10:59.830Z,77.12
2017-12-28T06:12:00.081Z,77.59
2017-12-28T06:12:59.794Z,77.5
2017-12-28T06:13:59.762Z,76.93
2017-12-28T06:14:59.743Z,76.74
2017-12-28T06:16:00.189Z,77.22
2017-12-28T06:16:59.960Z,76.93
2017-12-28T06:17:59.940Z,76.74
2017-12-28T06:18:59.656Z,76.84
2017-12-28T06:19:59.890Z,77.59
2017-12-28T06:20:59.866Z,77.12
2017-12-28T06:21:59.584Z,77.03
2017-12-28T06:22:59.560Z,77.31
2017-12-28T06:23:59.799Z,77.4
2017-12-28T06:24:59.776Z,77.46
2017-12-28T06:25:59.759Z,77.56
2017-12-28T06:26:59.729Z,76.89
2017-12-28T06:27:59.705Z,77.5
2017-12-28T06:28:59.685Z,77.31
2017-12-28T06:29:59.664Z,77.31
2017-12-28T06:30:59.379Z,77.12
2017-12-28T06:31:59.353Z,77.31
2017-12-28T06:32:59.596Z,77.22
2017-12-28T06:33:59.311Z,77.31
2017-12-28T06:34:59.291Z,77.22
2017-12-28T06:35:59.264Z,77.03
2017-12-28T06:36:59.506Z,77.31
2017-12-28T06:37:59.218Z,77.69
2017-12-28T06:38:59.195Z,77.03
2017-12-28T06:39:59.175Z,77.4
2017-12-28T06:40:59.415Z,77.4
2017-12-28T06:41:59.391Z,77.03
2017-12-28T06:42:59.105Z,77.22
2017-12-28T06:43:59.347Z,77.4
2017-12-28T06:44:59.321Z,77.5
2017-12-28T06:45:59.299Z,77.4
2017-12-28T06:46:59.277Z,77.97
2017-12-28T06:47:59.259Z,77.22
2017-12-28T06:48:58.969Z,78.07
2017-12-28T06:49:59.211Z,77.88
2017-12-28T06:50:59.202Z,78.07
2017-12-28T06:51:59.161Z,77.78
2017-12-28T06:52:59.144Z,78.73
2017-12-28T06:53:58.858Z,78.64
2017-12-28T06:54:59.105Z,78.35
2017-12-28T06:55:59.074Z,77.88
2017-12-28T06:56:59.051Z,77.97
2017-12-28T06:57:59.033Z,77.78
2017-12-28T06:58:59.008Z,78.26
2017-12-28T06:59:58.719Z,77.88
2017-12-28T07:00:58.747Z,78.07
2017-12-28T07:01:58.677Z,78.54
2017-12-28T07:02:58.915Z,78.26
2017-12-28T07:03:58.630Z,78.54
2017-12-28T07:04:58.869Z,78.73
2017-12-28T07:05:58.585Z,79.11
2017-12-28T07:06:58.831Z,79.39
2017-12-28T07:07:58.805Z,79.77
2017-12-28T07:08:58.783Z,79.49
2017-12-28T07:09:58.761Z,79.3
2017-12-28T07:10:58.737Z,80.06
2017-12-28T07:11:58.712Z,79.58
2017-12-28T07:12:58.690Z,79.3
2017-12-28T07:13:58.406Z,79.77
2017-12-28T07:14:58.645Z,79.77
2017-12-28T07:15:58.364Z,79.96
2017-12-28T07:16:58.605Z,80.06
2017-12-28T07:17:58.575Z,80.34
2017-12-28T07:18:58.560Z,80.15
2017-12-28T07:19:58.536Z,80.63
2017-12-28T07:20:58.250Z,80.44
2017-12-28T07:21:58.491Z,79.96
2017-12-28T07:22:58.200Z,80.25
2017-12-28T07:23:58.179Z,80.44
2017-12-28T07:24:58.155Z,79.77
2017-12-28T07:25:58.396Z,80.06
2017-12-28T07:26:58.108Z,80.34
2017-12-28T07:27:58.349Z,79.58
2017-12-28T07:28:58.070Z,80.44
2017-12-28T07:29:58.308Z,80.34
2017-12-28T07:30:58.020Z,79.58
2017-12-28T07:31:58.259Z,80.15
2017-12-28T07:32:57.979Z,79.87
2017-12-28T07:33:57.954Z,80.06
2017-12-28T07:34:58.194Z,79.58
2017-12-28T07:35:58.174Z,79.77
2017-12-28T07:36:58.148Z,80.06
2017-12-28T07:37:58.126Z,79.39
2017-12-28T07:38:57.843Z,79.49
2017-12-28T07:39:58.079Z,79.68
2017-12-28T07:40:58.051Z,79.49
2017-12-28T07:41:58.032Z,79.11
2017-12-28T07:42:58.011Z,79.39
2017-12-28T07:43:57.726Z,79.02
2017-12-28T07:44:57.700Z,79.3
2017-12-28T07:45:57.682Z,79.39
2017-12-28T07:46:57.925Z,79.68
2017-12-28T07:47:57.895Z,79.49
2017-12-28T07:48:57.873Z,79.49
2017-12-28T07:49:57.852Z,79.58
2017-12-28T07:50:57.567Z,79.58
2017-12-28T07:51:57.805Z,79.11
2017-12-28T07:52:57.784Z,79.58
2017-12-28T07:53:57.762Z,79.77
2017-12-28T07:54:57.740Z,79.77
2017-12-28T07:55:57.714Z,79.58
2017-12-28T07:56:57.430Z,79.68
2017-12-28T07:57:57.408Z,79.49
2017-12-28T07:58:57.649Z,79.58
2017-12-28T07:59:57.360Z,79.11
2017-12-28T08:00:57.598Z,79.02
2017-12-28T08:01:57.359Z,79.02
2017-12-28T08:02:57.289Z,79.11
2017-12-28T08:03:57.533Z,78.83
2017-12-28T08:04:57.507Z,79.11
2017-12-28T08:05:57.228Z,78.83
2017-12-28T08:06:57.463Z,78.73
2017-12-28T08:07:57.176Z,78.92
2017-12-28T08:08:57.421Z,78.64
2017-12-28T08:09:57.405Z,79.02
2017-12-28T08:10:57.106Z,78.07
2017-12-28T08:11:57.091Z,78.73
2017-12-28T08:12:57.061Z,78.13
2017-12-28T08:13:57.305Z,78.13
2017-12-28T08:14:57.279Z,78.59
2017-12-28T08:15:57.456Z,78.59
2017-12-28T08:16:56.971Z,78.26
2017-12-28T08:17:56.956Z,78.13
2017-12-28T08:18:56.927Z,78.13
2017-12-28T08:19:57.167Z,78.41
2017-12-28T08:20:57.139Z,78.22
2017-12-28T08:21:57.127Z,77.84
2017-12-28T08:22:57.104Z,78.03
2017-12-28T08:23:56.812Z,77.84
2017-12-28T08:24:57.050Z,77.84
2017-12-28T08:25:57.027Z,77.75
2017-12-28T08:26:56.749Z,77.84
2017-12-28T08:27:56.982Z,77.94
2017-12-28T08:28:56.695Z,78.03
2017-12-28T08:29:56.934Z,77.88
2017-12-28T08:30:56.915Z,78.16
2017-12-28T08:31:56.627Z,77.56
2017-12-28T08:32:56.601Z,78.07
2017-12-28T08:33:56.853Z,78.07
2017-12-28T08:34:56.561Z,77.75
2017-12-28T08:35:56.532Z,78.26
2017-12-28T08:36:56.517Z,77.97
2017-12-28T08:37:56.758Z,77.78
2017-12-28T08:38:56.464Z,77.56
2017-12-28T08:39:56.445Z,77.12
2017-12-28T08:40:56.689Z,77.75
2017-12-28T08:41:56.663Z,77.18
2017-12-28T08:42:56.374Z,76.84
2017-12-28T08:43:56.621Z,77.08
2017-12-28T08:44:56.591Z,77.4
2017-12-28T08:45:56.305Z,77.4
2017-12-28T08:46:56.282Z,77.08
2017-12-28T08:47:56.522Z,77.12
2017-12-28T08:48:56.511Z,77.27
2017-12-28T08:49:56.214Z,77.12
2017-12-28T08:50:56.458Z,77.22
2017-12-28T08:51:56.484Z,77.4
2017-12-28T08:52:56.415Z,77.31
2017-12-28T08:53:56.129Z,77.5
2017-12-28T08:54:56.365Z,77.78
2017-12-28T08:55:56.084Z,77.78
2017-12-28T08:56:56.058Z,77.22
2017-12-28T08:57:56.296Z,77.5
2017-12-28T08:58:56.274Z,77.5
2017-12-28T08:59:56.248Z,77.4
2017-12-28T09:00:55.964Z,77.97
2017-12-28T09:01:55.938Z,77.22
2017-12-28T09:02:56.185Z,77.88
2017-12-28T09:03:56.161Z,78.16
2017-12-28T09:04:56.139Z,77.88
2017-12-28T09:05:56.113Z,78.07
2017-12-28T09:06:55.825Z,77.5
2017-12-28T09:07:55.801Z,77.88
2017-12-28T09:08:56.045Z,77.97
2017-12-28T09:09:56.021Z,77.88
2017-12-28T09:10:56.012Z,77.78
2017-12-28T09:11:55.718Z,78.16
2017-12-28T09:12:55.963Z,77.97
2017-12-28T09:13:55.678Z,77.88
2017-12-28T09:14:55.919Z,78.16
2017-12-28T09:15:55.621Z,78.54
2017-12-28T09:16:55.619Z,78.54
2017-12-28T09:17:55.846Z,78.64
2017-12-28T09:18:55.828Z,78.83
2017-12-28T09:19:55.807Z,79.11
2017-12-28T09:20:55.511Z,79.21
2017-12-28T09:21:55.498Z,78.83
2017-12-28T09:22:55.466Z,79.11
2017-12-28T09:23:55.445Z,79.96
2017-12-28T09:24:55.684Z,82.05
2017-12-28T09:25:55.682Z,81.38
2017-12-28T09:26:55.378Z,82.33
2017-12-28T09:27:55.355Z,82.33
2017-12-28T09:28:55.598Z,82.43
2017-12-28T09:29:55.311Z,82.14
2017-12-28T09:30:55.293Z,82.24
2017-12-28T09:31:55.535Z,82.14
2017-12-28T09:32:55.248Z,82.37
2017-12-28T09:33:55.229Z,82.52
2017-12-28T09:34:55.206Z,82.94
2017-12-28T09:35:55.437Z,82.85
2017-12-28T09:36:55.441Z,82.47
2017-12-28T09:37:55.398Z,82.94
2017-12-28T09:38:55.382Z,83.42
2017-12-28T09:39:55.105Z,84.46
2017-12-28T09:40:55.342Z,84.74
2017-12-28T09:41:55.310Z,85.03
2017-12-28T09:42:55.025Z,85.6
2017-12-28T09:43:55.257Z,85.5
2017-12-28T09:44:54.977Z,85.78
2017-12-28T09:45:55.226Z,86.93
2017-12-28T09:46:54.941Z,86.35
2017-12-28T09:47:55.180Z,86.45
2017-12-28T09:48:54.895Z,87.02
2017-12-28T09:49:55.127Z,87.68
2017-12-28T09:50:54.843Z,89.01
2017-12-28T09:51:55.146Z,89.67
2017-12-28T09:52:54.807Z,89.39
2017-12-28T09:53:55.045Z,90.19
2017-12-28T09:54:54.759Z,90.81
2017-12-28T09:55:55.011Z,91.19
2017-12-28T09:56:54.712Z,91.19
2017-12-28T09:57:54.957Z,89.72
2017-12-28T09:58:54.934Z,89.53
2017-12-28T09:59:54.915Z,91.14
2017-12-28T10:00:54.630Z,91.71
2017-12-28T10:01:54.874Z,91.8
2017-12-28T10:02:54.864Z,91.99
2017-12-28T10:03:54.829Z,95.36
2017-12-28T10:04:54.550Z,96.31
2017-12-28T10:05:54.803Z,97.92
2017-12-28T10:06:54.770Z,98.35
2017-12-28T10:07:54.754Z,99.99
2017-12-28T10:08:54.739Z,99.99
2017-12-28T10:09:54.719Z,99.99
2017-12-28T10:10:54.702Z,99.99
2017-12-28T10:11:54.693Z,99.99
2017-12-28T10:12:54.391Z,99.99
2017-12-28T10:13:54.371Z,99.99
2017-12-28T10:14:54.351Z,99.99
2017-12-28T10:15:54.800Z,99.99
2017-12-28T10:16:54.583Z,99.99
2017-12-28T10:17:54.295Z,99.99
2017-12-28T10:18:54.539Z,99.99
2017-12-28T10:19:54.257Z,99.99
2017-12-28T10:20:54.499Z,99.99
2017-12-28T10:21:54.490Z,99.99
2017-12-28T10:22:54.205Z,99.99
2017-12-28T10:23:54.192Z,99.99
2017-12-28T10:24:54.442Z,99.99
2017-12-28T10:25:54.160Z,99.99
2017-12-28T10:26:54.405Z,99.99
2017-12-28T10:27:54.389Z,99.99
2017-12-28T10:28:54.110Z,99.99
2017-12-28T10:29:54.085Z,99.99
2017-12-28T10:30:54.345Z,99.99
2017-12-28T10:31:54.051Z,99.99
2017-12-28T10:32:54.311Z,99.99
2017-12-28T10:33:54.019Z,99.99
2017-12-28T10:34:54.263Z,99.99
2017-12-28T10:35:53.978Z,99.99
2017-12-28T10:36:53.982Z,99.99
2017-12-28T10:37:53.961Z,99.99
2017-12-28T10:38:53.932Z,99.99
2017-12-28T10:39:54.176Z,99.99
2017-12-28T10:40:53.908Z,99.99
2017-12-28T10:41:53.884Z,99.99
2017-12-28T10:42:54.127Z,99.99
2017-12-28T10:43:53.849Z,99.99
2017-12-28T10:44:54.089Z,99.99
2017-12-28T10:45:54.089Z,99.99
2017-12-28T10:46:53.796Z,99.99
2017-12-28T10:47:53.772Z,99.99
2017-12-28T10:48:53.769Z,99.99
2017-12-28T10:49:54.014Z,99.99
2017-12-28T10:50:53.732Z,99.99
2017-12-28T10:51:53.712Z,99.99
2017-12-28T10:52:53.705Z,99.99
2017-12-28T10:53:53.683Z,99.99
2017-12-28T10:54:53.926Z,99.99
2017-12-28T10:55:53.902Z,99.99
2017-12-28T10:56:53.618Z,99.99
2017-12-28T10:57:53.598Z,99.99
2017-12-28T10:58:53.591Z,99.99
2017-12-28T10:59:53.569Z,99.99
2017-12-28T11:00:53.552Z,99.99
2017-12-28T11:01:53.533Z,99.99
2017-12-28T11:02:53.518Z,99.99
2017-12-28T11:03:53.766Z,99.99
2017-12-28T11:04:53.480Z,99.99
2017-12-28T11:05:53.721Z,99.99
2017-12-28T11:06:53.705Z,99.99
2017-12-28T11:07:53.686Z,99.99
2017-12-28T11:08:53.666Z,99.99
2017-12-28T11:09:53.651Z,99.99
2017-12-28T11:10:53.635Z,99.99
2017-12-28T11:11:53.615Z,99.99
2017-12-28T11:12:53.332Z,99.99
2017-12-28T11:13:53.579Z,99.99
2017-12-28T11:14:53.298Z,99.99
2017-12-28T11:15:53.280Z,99.99
2017-12-28T11:16:53.263Z,99.99
2017-12-28T11:17:53.247Z,99.99
2017-12-28T11:18:53.230Z,99.99
2017-12-28T11:19:53.479Z,99.99
2017-12-28T11:20:53.211Z,99.99
2017-12-28T11:21:53.448Z,99.99
2017-12-28T11:22:53.162Z,99.99
2017-12-28T11:23:53.409Z,99.99
2017-12-28T11:24:53.390Z,99.99
2017-12-28T11:25:53.115Z,99.99
2017-12-28T11:26:53.118Z,99.99
2017-12-28T11:27:53.340Z,99.99
2017-12-28T11:28:53.322Z,99.99
2017-12-28T11:29:53.040Z,99.99
2017-12-28T11:30:53.026Z,99.99
2017-12-28T11:31:53.274Z,99.99
2017-12-28T11:32:53.253Z,99.99
2017-12-28T11:33:53.231Z,99.99
2017-12-28T11:34:52.951Z,99.99
2017-12-28T11:35:53.198Z,99.99
2017-12-28T11:36:52.917Z,99.99
2017-12-28T11:37:53.166Z,99.99
2017-12-28T11:38:52.877Z,99.99
2017-12-28T11:39:53.139Z,99.99
2017-12-28T11:40:53.127Z,99.99
2017-12-28T11:41:53.108Z,99.99
2017-12-28T11:42:53.096Z,99.99
2017-12-28T11:43:52.796Z,99.99
2017-12-28T11:44:53.051Z,99.99
2017-12-28T11:45:53.024Z,99.99
2017-12-28T11:46:52.995Z,99.99
2017-12-28T11:47:52.988Z,99.99
2017-12-28T11:48:52.976Z,99.99
2017-12-28T11:49:52.687Z,99.99
2017-12-28T11:50:52.917Z,99.99
2017-12-28T11:51:52.639Z,99.99
2017-12-28T11:52:52.877Z,99.99
2017-12-28T11:53:52.886Z,99.99
2017-12-28T11:54:52.598Z,99.99
2017-12-28T11:55:52.572Z,99.99
2017-12-28T11:56:52.535Z,99.99
2017-12-28T11:57:52.779Z,99.99
2017-12-28T11:58:52.760Z,99.99
2017-12-28T11:59:52.490Z,99.99
2017-12-28T12:00:52.737Z,99.99
2017-12-28T12:01:52.444Z,99.99
2017-12-28T12:02:52.420Z,99.99
2017-12-28T12:03:52.674Z,99.99
2017-12-28T12:04:52.649Z,99.99
2017-12-28T12:05:52.368Z,99.99
2017-12-28T12:06:52.344Z,99.99
2017-12-28T12:07:52.324Z,99.99
2017-12-28T12:08:52.565Z,99.99
2017-12-28T12:09:52.546Z,99.99
2017-12-28T12:10:52.523Z,99.99
2017-12-28T12:11:52.242Z,99.99
2017-12-28T12:12:52.486Z,99.99
2017-12-28T12:13:52.474Z,99.99
2017-12-28T12:14:52.181Z,99.99
2017-12-28T12:15:52.165Z,99.99
2017-12-28T12:16:52.142Z,99.99
2017-12-28T12:17:52.403Z,99.99
2017-12-28T12:18:52.128Z,99.99
2017-12-28T12:19:52.110Z,99.99
2017-12-28T12:20:52.361Z,99.99
2017-12-28T12:21:52.039Z,99.99
2017-12-28T12:22:52.287Z,99.99
2017-12-28T12:23:52.337Z,99.99
2017-12-28T12:24:52.250Z,99.99
2017-12-28T12:25:52.228Z,99.99
2017-12-28T12:26:51.950Z,99.99
2017-12-28T12:27:51.936Z,99.99
2017-12-28T12:28:52.178Z,99.99
2017-12-28T12:29:51.895Z,99.99
2017-12-28T12:30:51.883Z,99.99
2017-12-28T12:31:52.126Z,99.99
2017-12-28T12:32:52.124Z,99.99
2017-12-28T12:33:51.833Z,99.99
2017-12-28T12:34:52.085Z,99.99
2017-12-28T12:35:52.066Z,99.99
2017-12-28T12:36:52.132Z,99.99
2017-12-28T12:37:51.779Z,99.99
2017-12-28T12:38:52.026Z,99.99
2017-12-28T12:39:52.011Z,99.99
2017-12-28T12:40:51.732Z,99.99
2017-12-28T12:41:51.980Z,99.99
2017-12-28T12:42:52.194Z,99.99
2017-12-28T12:43:51.695Z,99.99
2017-12-28T12:44:51.677Z,99.99
2017-12-28T12:45:51.672Z,99.99
2017-12-28T12:46:51.674Z,99.99
2017-12-28T12:47:51.905Z,99.99
2017-12-28T12:48:51.891Z,99.99
2017-12-28T12:49:51.874Z,99.99
2017-12-28T12:50:51.593Z,99.99
2017-12-28T12:51:51.583Z,99.99
2017-12-28T12:52:51.840Z,99.99
2017-12-28T12:53:51.551Z,99.99